sensor_id;sensor_type;location;lat;lon;timestamp;temperature;humidity
17813;DHT22;9030;50.792;8.320;2023-08-31T00:00:53;9.60;99.90
17813;DHT22;9030;50.792;8.320;2023-08-31T00:03:20;9.60;99.90
17813;DHT22;9030;50.792;8.320;2023-08-31T00:09:09;9.70;99.90
17813;DHT22;9030;50.792;8.320;2023-08-31T00:11:36;9.60;99.90
17813;DHT22;9030;50.792;8.320;2023-08-31T00:14:03;9.50;99.90
17813;DHT22;9030;50.792;8.320;2023-08-31T00:16:31;9.40;99.90
17813;DHT22;9030;50.792;8.320;2023-08-31T00:18:59;9.40;99.90
17813;DHT22;9030;50.792;8.320;2023-08-31T00:21:25;9.40;99.90
17813;DHT22;9030;50.792;8.320;2023-08-31T00:23:52;9.40;99.90
17813;DHT22;9030;50.792;8.320;2023-08-31T00:26:19;9.40;99.90
17813;DHT22;9030;50.792;8.320;2023-08-31T00:28:46;9.40;99.90
17813;DHT22;9030;50.792;8.320;2023-08-31T00:31:14;9.30;99.90
17813;DHT22;9030;50.792;8.320;2023-08-31T00:33:42;9.30;99.90
17813;DHT22;9030;50.792;8.320;2023-08-31T00:36:09;9.30;99.90
17813;DHT22;9030;50.792;8.320;2023-08-31T00:38:36;9.30;99.90
17813;DHT22;9030;50.792;8.320;2023-08-31T00:41:03;9.30;99.90
17813;DHT22;9030;50.792;8.320;2023-08-31T00:43:30;9.30;99.90
17813;DHT22;9030;50.792;8.320;2023-08-31T00:45:58;9.40;99.90
17813;DHT22;9030;50.792;8.320;2023-08-31T00:48:25;9.30;99.90
17813;DHT22;9030;50.792;8.320;2023-08-31T00:50:53;9.40;99.90
17813;DHT22;9030;50.792;8.320;2023-08-31T00:53:21;9.40;99.90
17813;DHT22;9030;50.792;8.320;2023-08-31T00:55:48;9.40;99.90
17813;DHT22;9030;50.792;8.320;2023-08-31T00:58:15;9.40;99.90
17813;DHT22;9030;50.792;8.320;2023-08-31T01:00:46;9.20;99.90
17813;DHT22;9030;50.792;8.320;2023-08-31T01:03:19;9.30;99.90
17813;DHT22;9030;50.792;8.320;2023-08-31T01:05:54;9.20;99.90
17813;DHT22;9030;50.792;8.320;2023-08-31T01:08:29;9.10;99.90
17813;DHT22;9030;50.792;8.320;2023-08-31T01:11:04;9.10;99.90
17813;DHT22;9030;50.792;8.320;2023-08-31T01:13:34;9.10;99.90
17813;DHT22;9030;50.792;8.320;2023-08-31T01:16:05;9.00;99.90
17813;DHT22;9030;50.792;8.320;2023-08-31T01:18:34;9.10;99.90
17813;DHT22;9030;50.792;8.320;2023-08-31T01:21:10;9.10;99.90
17813;DHT22;9030;50.792;8.320;2023-08-31T01:23:50;9.10;99.90
17813;DHT22;9030;50.792;8.320;2023-08-31T01:26:18;9.10;99.90
17813;DHT22;9030;50.792;8.320;2023-08-31T01:28:45;9.10;99.90
17813;DHT22;9030;50.792;8.320;2023-08-31T01:31:12;9.10;99.90
17813;DHT22;9030;50.792;8.320;2023-08-31T01:33:40;9.10;99.90
17813;DHT22;9030;50.792;8.320;2023-08-31T01:36:11;9.00;99.90
17813;DHT22;9030;50.792;8.320;2023-08-31T01:38:43;8.90;99.90
17813;DHT22;9030;50.792;8.320;2023-08-31T01:41:14;8.80;99.90
17813;DHT22;9030;50.792;8.320;2023-08-31T01:43:43;8.80;99.90
17813;DHT22;9030;50.792;8.320;2023-08-31T01:46:11;8.80;99.90
17813;DHT22;9030;50.792;8.320;2023-08-31T01:48:39;8.80;99.90
17813;DHT22;9030;50.792;8.320;2023-08-31T01:51:06;8.80;99.90
17813;DHT22;9030;50.792;8.320;2023-08-31T01:53:33;8.90;99.90
17813;DHT22;9030;50.792;8.320;2023-08-31T01:56:00;9.00;99.90
17813;DHT22;9030;50.792;8.320;2023-08-31T01:58:28;9.00;99.90
17813;DHT22;9030;50.792;8.320;2023-08-31T02:00:54;9.00;99.90
17813;DHT22;9030;50.792;8.320;2023-08-31T02:03:22;9.00;99.90
17813;DHT22;9030;50.792;8.320;2023-08-31T02:05:48;9.00;99.90
17813;DHT22;9030;50.792;8.320;2023-08-31T02:08:15;9.00;99.90
17813;DHT22;9030;50.792;8.320;2023-08-31T02:10:43;8.90;99.90
17813;DHT22;9030;50.792;8.320;2023-08-31T02:13:10;9.00;99.90
17813;DHT22;9030;50.792;8.320;2023-08-31T02:15:39;9.00;99.90
17813;DHT22;9030;50.792;8.320;2023-08-31T02:18:07;9.10;99.90
17813;DHT22;9030;50.792;8.320;2023-08-31T02:20:34;9.20;99.90
17813;DHT22;9030;50.792;8.320;2023-08-31T02:23:01;9.20;99.90
17813;DHT22;9030;50.792;8.320;2023-08-31T02:25:27;9.30;99.90
17813;DHT22;9030;50.792;8.320;2023-08-31T02:27:54;9.30;99.90
17813;DHT22;9030;50.792;8.320;2023-08-31T02:30:21;9.40;99.90
17813;DHT22;9030;50.792;8.320;2023-08-31T02:32:49;9.50;99.90
17813;DHT22;9030;50.792;8.320;2023-08-31T02:35:16;9.50;99.90
17813;DHT22;9030;50.792;8.320;2023-08-31T02:37:42;9.50;99.90
17813;DHT22;9030;50.792;8.320;2023-08-31T02:40:10;9.50;99.90
17813;DHT22;9030;50.792;8.320;2023-08-31T02:42:37;9.40;99.90
17813;DHT22;9030;50.792;8.320;2023-08-31T02:45:04;9.50;99.90
17813;DHT22;9030;50.792;8.320;2023-08-31T02:47:31;9.50;99.90
17813;DHT22;9030;50.792;8.320;2023-08-31T02:49:59;9.60;99.90
17813;DHT22;9030;50.792;8.320;2023-08-31T02:52:26;9.60;99.90
17813;DHT22;9030;50.792;8.320;2023-08-31T02:54:53;9.60;99.90
17813;DHT22;9030;50.792;8.320;2023-08-31T02:57:21;9.60;99.90
17813;DHT22;9030;50.792;8.320;2023-08-31T02:59:50;9.50;99.90
17813;DHT22;9030;50.792;8.320;2023-08-31T03:02:16;9.50;99.90
17813;DHT22;9030;50.792;8.320;2023-08-31T03:04:43;9.60;99.90
17813;DHT22;9030;50.792;8.320;2023-08-31T03:07:11;9.60;99.90
17813;DHT22;9030;50.792;8.320;2023-08-31T03:09:40;9.70;99.90
17813;DHT22;9030;50.792;8.320;2023-08-31T03:12:07;9.90;99.90
17813;DHT22;9030;50.792;8.320;2023-08-31T03:14:34;9.90;99.90
17813;DHT22;9030;50.792;8.320;2023-08-31T03:17:01;10.00;99.90
17813;DHT22;9030;50.792;8.320;2023-08-31T03:19:27;10.00;99.90
17813;DHT22;9030;50.792;8.320;2023-08-31T03:21:54;10.10;99.90
17813;DHT22;9030;50.792;8.320;2023-08-31T03:24:22;10.10;99.90
17813;DHT22;9030;50.792;8.320;2023-08-31T03:26:49;10.10;99.90
17813;DHT22;9030;50.792;8.320;2023-08-31T03:29:16;10.20;99.90
17813;DHT22;9030;50.792;8.320;2023-08-31T03:31:42;10.10;99.90
17813;DHT22;9030;50.792;8.320;2023-08-31T03:34:09;10.10;99.90
17813;DHT22;9030;50.792;8.320;2023-08-31T03:36:36;10.20;99.90
17813;DHT22;9030;50.792;8.320;2023-08-31T03:39:03;10.10;99.90
17813;DHT22;9030;50.792;8.320;2023-08-31T03:41:31;10.20;99.90
17813;DHT22;9030;50.792;8.320;2023-08-31T03:43:58;10.20;99.90
17813;DHT22;9030;50.792;8.320;2023-08-31T03:46:25;10.20;99.90
17813;DHT22;9030;50.792;8.320;2023-08-31T03:48:52;10.30;99.90
17813;DHT22;9030;50.792;8.320;2023-08-31T03:51:18;10.30;99.90
17813;DHT22;9030;50.792;8.320;2023-08-31T03:53:45;10.30;99.90
17813;DHT22;9030;50.792;8.320;2023-08-31T03:56:12;10.30;99.90
17813;DHT22;9030;50.792;8.320;2023-08-31T03:58:40;10.20;99.90
17813;DHT22;9030;50.792;8.320;2023-08-31T04:01:07;10.10;99.90
17813;DHT22;9030;50.792;8.320;2023-08-31T04:03:36;10.00;99.90
17813;DHT22;9030;50.792;8.320;2023-08-31T04:06:02;9.90;99.90
17813;DHT22;9030;50.792;8.320;2023-08-31T04:08:30;9.90;99.90
17813;DHT22;9030;50.792;8.320;2023-08-31T04:10:57;9.90;99.90
17813;DHT22;9030;50.792;8.320;2023-08-31T04:13:24;9.90;99.90
17813;DHT22;9030;50.792;8.320;2023-08-31T04:15:52;9.90;99.90
17813;DHT22;9030;50.792;8.320;2023-08-31T04:18:19;10.00;99.90
17813;DHT22;9030;50.792;8.320;2023-08-31T04:20:50;10.00;99.90
17813;DHT22;9030;50.792;8.320;2023-08-31T04:23:17;10.00;99.90
17813;DHT22;9030;50.792;8.320;2023-08-31T04:25:44;10.10;99.90
17813;DHT22;9030;50.792;8.320;2023-08-31T04:28:11;10.10;99.90
17813;DHT22;9030;50.792;8.320;2023-08-31T04:30:39;10.00;99.90
17813;DHT22;9030;50.792;8.320;2023-08-31T04:33:07;10.00;99.90
17813;DHT22;9030;50.792;8.320;2023-08-31T04:35:34;10.10;99.90
17813;DHT22;9030;50.792;8.320;2023-08-31T04:38:01;10.10;99.90
17813;DHT22;9030;50.792;8.320;2023-08-31T04:40:28;10.10;99.90
17813;DHT22;9030;50.792;8.320;2023-08-31T04:42:55;10.20;99.90
17813;DHT22;9030;50.792;8.320;2023-08-31T04:45:21;10.30;99.90
17813;DHT22;9030;50.792;8.320;2023-08-31T04:47:48;10.30;99.90
17813;DHT22;9030;50.792;8.320;2023-08-31T04:50:17;10.30;99.90
17813;DHT22;9030;50.792;8.320;2023-08-31T04:52:44;10.30;99.90
17813;DHT22;9030;50.792;8.320;2023-08-31T04:55:12;10.30;99.90
17813;DHT22;9030;50.792;8.320;2023-08-31T04:57:40;10.30;99.90
17813;DHT22;9030;50.792;8.320;2023-08-31T05:00:07;10.40;99.90
17813;DHT22;9030;50.792;8.320;2023-08-31T05:02:35;10.30;99.90
17813;DHT22;9030;50.792;8.320;2023-08-31T05:05:03;10.40;99.90
17813;DHT22;9030;50.792;8.320;2023-08-31T05:07:31;10.40;99.90
17813;DHT22;9030;50.792;8.320;2023-08-31T05:09:58;10.40;99.90
17813;DHT22;9030;50.792;8.320;2023-08-31T05:12:25;10.40;99.90
17813;DHT22;9030;50.792;8.320;2023-08-31T05:14:51;10.40;99.90
17813;DHT22;9030;50.792;8.320;2023-08-31T05:17:18;10.40;99.90
17813;DHT22;9030;50.792;8.320;2023-08-31T05:19:45;10.40;99.90
17813;DHT22;9030;50.792;8.320;2023-08-31T05:22:12;10.50;99.90
17813;DHT22;9030;50.792;8.320;2023-08-31T05:24:40;10.60;99.90
17813;DHT22;9030;50.792;8.320;2023-08-31T05:27:07;10.60;99.90
17813;DHT22;9030;50.792;8.320;2023-08-31T05:29:34;10.60;99.90
17813;DHT22;9030;50.792;8.320;2023-08-31T05:32:01;10.60;99.90
17813;DHT22;9030;50.792;8.320;2023-08-31T05:34:28;10.60;99.90
17813;DHT22;9030;50.792;8.320;2023-08-31T05:36:56;10.60;99.90
17813;DHT22;9030;50.792;8.320;2023-08-31T05:39:22;10.60;99.90
17813;DHT22;9030;50.792;8.320;2023-08-31T05:41:50;10.70;99.90
17813;DHT22;9030;50.792;8.320;2023-08-31T05:44:17;10.80;99.90
17813;DHT22;9030;50.792;8.320;2023-08-31T05:46:44;10.90;99.90
17813;DHT22;9030;50.792;8.320;2023-08-31T05:49:11;11.00;99.90
17813;DHT22;9030;50.792;8.320;2023-08-31T05:51:37;11.00;99.90
17813;DHT22;9030;50.792;8.320;2023-08-31T05:54:04;11.10;99.90
17813;DHT22;9030;50.792;8.320;2023-08-31T05:56:35;11.10;99.90
17813;DHT22;9030;50.792;8.320;2023-08-31T05:59:04;11.10;99.90
17813;DHT22;9030;50.792;8.320;2023-08-31T06:01:31;11.10;99.90
17813;DHT22;9030;50.792;8.320;2023-08-31T06:03:58;11.10;99.90
17813;DHT22;9030;50.792;8.320;2023-08-31T06:06:24;11.20;99.90
17813;DHT22;9030;50.792;8.320;2023-08-31T06:08:51;11.30;99.90
17813;DHT22;9030;50.792;8.320;2023-08-31T06:11:19;11.30;99.90
17813;DHT22;9030;50.792;8.320;2023-08-31T06:13:46;11.30;99.90
17813;DHT22;9030;50.792;8.320;2023-08-31T06:16:14;11.40;99.90
17813;DHT22;9030;50.792;8.320;2023-08-31T06:18:41;11.40;99.90
17813;DHT22;9030;50.792;8.320;2023-08-31T06:21:09;11.40;99.90
17813;DHT22;9030;50.792;8.320;2023-08-31T06:23:35;11.50;99.90
17813;DHT22;9030;50.792;8.320;2023-08-31T06:26:02;11.50;99.90
17813;DHT22;9030;50.792;8.320;2023-08-31T06:28:30;11.50;99.90
17813;DHT22;9030;50.792;8.320;2023-08-31T06:30:56;11.50;99.90
17813;DHT22;9030;50.792;8.320;2023-08-31T06:33:25;11.60;99.90
17813;DHT22;9030;50.792;8.320;2023-08-31T06:35:51;11.80;99.90
17813;DHT22;9030;50.792;8.320;2023-08-31T06:38:18;11.90;99.90
17813;DHT22;9030;50.792;8.320;2023-08-31T06:40:46;11.90;99.90
17813;DHT22;9030;50.792;8.320;2023-08-31T06:43:13;12.00;99.90
17813;DHT22;9030;50.792;8.320;2023-08-31T06:45:40;12.10;99.90
17813;DHT22;9030;50.792;8.320;2023-08-31T06:48:06;12.30;99.90
17813;DHT22;9030;50.792;8.320;2023-08-31T06:50:35;12.50;99.90
17813;DHT22;9030;50.792;8.320;2023-08-31T06:53:02;12.60;99.90
17813;DHT22;9030;50.792;8.320;2023-08-31T06:55:29;12.70;99.90
17813;DHT22;9030;50.792;8.320;2023-08-31T06:57:57;12.70;99.90
17813;DHT22;9030;50.792;8.320;2023-08-31T07:00:24;12.70;99.90
17813;DHT22;9030;50.792;8.320;2023-08-31T07:02:50;12.70;99.90
17813;DHT22;9030;50.792;8.320;2023-08-31T07:05:16;12.80;99.90
17813;DHT22;9030;50.792;8.320;2023-08-31T07:07:49;13.00;99.90
17813;DHT22;9030;50.792;8.320;2023-08-31T07:10:16;13.10;99.90
17813;DHT22;9030;50.792;8.320;2023-08-31T07:12:43;13.20;99.90
17813;DHT22;9030;50.792;8.320;2023-08-31T07:15:10;13.30;99.90
17813;DHT22;9030;50.792;8.320;2023-08-31T07:17:36;13.30;99.90
17813;DHT22;9030;50.792;8.320;2023-08-31T07:20:04;13.30;99.90
17813;DHT22;9030;50.792;8.320;2023-08-31T07:22:32;13.40;99.90
17813;DHT22;9030;50.792;8.320;2023-08-31T07:25:00;13.50;99.90
17813;DHT22;9030;50.792;8.320;2023-08-31T07:27:27;13.60;99.90
17813;DHT22;9030;50.792;8.320;2023-08-31T07:29:54;13.60;99.90
17813;DHT22;9030;50.792;8.320;2023-08-31T07:32:21;13.70;99.90
17813;DHT22;9030;50.792;8.320;2023-08-31T07:34:47;13.70;99.90
17813;DHT22;9030;50.792;8.320;2023-08-31T07:37:14;13.90;99.90
17813;DHT22;9030;50.792;8.320;2023-08-31T07:39:41;13.90;99.90
17813;DHT22;9030;50.792;8.320;2023-08-31T07:42:09;13.90;99.90
17813;DHT22;9030;50.792;8.320;2023-08-31T07:44:36;13.60;99.90
17813;DHT22;9030;50.792;8.320;2023-08-31T07:47:03;13.20;99.90
17813;DHT22;9030;50.792;8.320;2023-08-31T07:49:29;13.20;99.90
17813;DHT22;9030;50.792;8.320;2023-08-31T07:51:56;13.30;99.90
17813;DHT22;9030;50.792;8.320;2023-08-31T07:54:23;13.20;99.90
17813;DHT22;9030;50.792;8.320;2023-08-31T07:56:50;13.30;99.90
17813;DHT22;9030;50.792;8.320;2023-08-31T07:59:18;13.40;99.90
17813;DHT22;9030;50.792;8.320;2023-08-31T08:01:47;13.60;99.90
17813;DHT22;9030;50.792;8.320;2023-08-31T08:04:13;13.70;99.90
17813;DHT22;9030;50.792;8.320;2023-08-31T08:06:40;13.70;99.90
17813;DHT22;9030;50.792;8.320;2023-08-31T08:09:07;13.60;99.90
17813;DHT22;9030;50.792;8.320;2023-08-31T08:11:34;13.60;99.90
17813;DHT22;9030;50.792;8.320;2023-08-31T08:14:01;14.20;99.90
17813;DHT22;9030;50.792;8.320;2023-08-31T08:16:30;14.80;99.90
17813;DHT22;9030;50.792;8.320;2023-08-31T08:18:56;15.30;99.90
17813;DHT22;9030;50.792;8.320;2023-08-31T08:21:23;15.30;99.90
17813;DHT22;9030;50.792;8.320;2023-08-31T08:23:50;15.30;99.90
17813;DHT22;9030;50.792;8.320;2023-08-31T08:26:17;15.40;99.90
17813;DHT22;9030;50.792;8.320;2023-08-31T08:28:44;15.60;99.90
17813;DHT22;9030;50.792;8.320;2023-08-31T08:31:11;16.20;99.90
17813;DHT22;9030;50.792;8.320;2023-08-31T08:33:39;16.20;99.90
17813;DHT22;9030;50.792;8.320;2023-08-31T08:36:06;16.40;99.90
17813;DHT22;9030;50.792;8.320;2023-08-31T08:38:33;16.10;99.90
17813;DHT22;9030;50.792;8.320;2023-08-31T08:41:04;15.90;99.90
17813;DHT22;9030;50.792;8.320;2023-08-31T08:43:33;16.70;99.90
17813;DHT22;9030;50.792;8.320;2023-08-31T08:46:02;17.40;99.90
17813;DHT22;9030;50.792;8.320;2023-08-31T08:48:31;17.30;99.90
17813;DHT22;9030;50.792;8.320;2023-08-31T08:51:00;16.30;99.90
17813;DHT22;9030;50.792;8.320;2023-08-31T08:53:28;15.90;99.90
17813;DHT22;9030;50.792;8.320;2023-08-31T08:55:55;16.10;99.90
17813;DHT22;9030;50.792;8.320;2023-08-31T08:58:22;16.70;99.90
17813;DHT22;9030;50.792;8.320;2023-08-31T09:00:49;16.70;99.90
17813;DHT22;9030;50.792;8.320;2023-08-31T09:03:16;16.10;99.90
17813;DHT22;9030;50.792;8.320;2023-08-31T09:05:43;16.40;99.90
17813;DHT22;9030;50.792;8.320;2023-08-31T09:08:11;16.20;99.90
17813;DHT22;9030;50.792;8.320;2023-08-31T09:10:40;15.80;99.90
17813;DHT22;9030;50.792;8.320;2023-08-31T09:13:08;15.30;99.90
17813;DHT22;9030;50.792;8.320;2023-08-31T09:15:43;15.40;99.90
17813;DHT22;9030;50.792;8.320;2023-08-31T09:18:17;15.50;99.90
17813;DHT22;9030;50.792;8.320;2023-08-31T09:20:49;15.40;99.90
17813;DHT22;9030;50.792;8.320;2023-08-31T09:23:17;15.20;99.90
17813;DHT22;9030;50.792;8.320;2023-08-31T09:25:45;15.10;99.90
17813;DHT22;9030;50.792;8.320;2023-08-31T09:28:14;15.30;99.90
17813;DHT22;9030;50.792;8.320;2023-08-31T09:30:41;15.80;99.90
17813;DHT22;9030;50.792;8.320;2023-08-31T09:33:09;16.20;99.90
17813;DHT22;9030;50.792;8.320;2023-08-31T09:35:39;15.80;99.90
17813;DHT22;9030;50.792;8.320;2023-08-31T09:38:10;15.60;99.90
17813;DHT22;9030;50.792;8.320;2023-08-31T09:40:38;15.30;99.90
17813;DHT22;9030;50.792;8.320;2023-08-31T09:43:05;16.10;99.90
17813;DHT22;9030;50.792;8.320;2023-08-31T09:45:33;16.80;99.90
17813;DHT22;9030;50.792;8.320;2023-08-31T09:48:02;16.70;99.90
17813;DHT22;9030;50.792;8.320;2023-08-31T09:50:29;16.90;99.90
17813;DHT22;9030;50.792;8.320;2023-08-31T09:53:00;16.80;99.90
17813;DHT22;9030;50.792;8.320;2023-08-31T09:55:30;17.40;99.90
17813;DHT22;9030;50.792;8.320;2023-08-31T09:57:59;18.20;99.90
17813;DHT22;9030;50.792;8.320;2023-08-31T10:00:29;18.60;99.90
17813;DHT22;9030;50.792;8.320;2023-08-31T10:02:58;19.20;99.90
17813;DHT22;9030;50.792;8.320;2023-08-31T10:05:25;19.00;99.90
17813;DHT22;9030;50.792;8.320;2023-08-31T10:07:52;18.80;99.90
17813;DHT22;9030;50.792;8.320;2023-08-31T10:10:19;19.00;99.90
17813;DHT22;9030;50.792;8.320;2023-08-31T10:12:48;19.30;99.90
17813;DHT22;9030;50.792;8.320;2023-08-31T10:15:18;19.80;99.90
17813;DHT22;9030;50.792;8.320;2023-08-31T10:17:45;19.60;99.90
17813;DHT22;9030;50.792;8.320;2023-08-31T10:20:14;19.90;99.90
17813;DHT22;9030;50.792;8.320;2023-08-31T10:22:41;20.20;99.90
17813;DHT22;9030;50.792;8.320;2023-08-31T10:25:09;18.40;99.90
17813;DHT22;9030;50.792;8.320;2023-08-31T10:27:37;17.60;99.90
17813;DHT22;9030;50.792;8.320;2023-08-31T10:30:31;18.20;99.90
17813;DHT22;9030;50.792;8.320;2023-08-31T10:33:20;18.40;99.90
17813;DHT22;9030;50.792;8.320;2023-08-31T10:35:49;18.20;99.90
17813;DHT22;9030;50.792;8.320;2023-08-31T10:38:22;18.00;99.90
17813;DHT22;9030;50.792;8.320;2023-08-31T10:41:17;18.50;99.90
17813;DHT22;9030;50.792;8.320;2023-08-31T10:43:46;19.30;99.90
17813;DHT22;9030;50.792;8.320;2023-08-31T10:46:24;19.40;99.90
17813;DHT22;9030;50.792;8.320;2023-08-31T10:48:52;19.20;99.90
17813;DHT22;9030;50.792;8.320;2023-08-31T10:51:22;18.40;99.90
17813;DHT22;9030;50.792;8.320;2023-08-31T10:53:49;18.00;99.90
17813;DHT22;9030;50.792;8.320;2023-08-31T10:56:16;17.50;99.90
17813;DHT22;9030;50.792;8.320;2023-08-31T10:58:53;17.50;99.90
17813;DHT22;9030;50.792;8.320;2023-08-31T11:04:25;17.20;99.90
17813;DHT22;9030;50.792;8.320;2023-08-31T11:07:12;16.90;99.90
17813;DHT22;9030;50.792;8.320;2023-08-31T11:09:38;17.20;99.90
17813;DHT22;9030;50.792;8.320;2023-08-31T11:12:06;17.00;99.90
17813;DHT22;9030;50.792;8.320;2023-08-31T11:14:32;16.70;99.90
17813;DHT22;9030;50.792;8.320;2023-08-31T11:16:59;16.70;99.90
17813;DHT22;9030;50.792;8.320;2023-08-31T11:19:28;17.10;99.90
17813;DHT22;9030;50.792;8.320;2023-08-31T11:21:54;18.20;99.90
17813;DHT22;9030;50.792;8.320;2023-08-31T11:24:21;18.90;99.90
17813;DHT22;9030;50.792;8.320;2023-08-31T11:26:49;18.90;99.90
17813;DHT22;9030;50.792;8.320;2023-08-31T11:29:16;18.70;99.90
17813;DHT22;9030;50.792;8.320;2023-08-31T11:31:43;18.20;99.90
17813;DHT22;9030;50.792;8.320;2023-08-31T11:34:12;18.10;99.90
17813;DHT22;9030;50.792;8.320;2023-08-31T11:36:41;18.00;99.90
17813;DHT22;9030;50.792;8.320;2023-08-31T11:39:09;18.00;99.90
17813;DHT22;9030;50.792;8.320;2023-08-31T11:41:36;17.80;99.90
17813;DHT22;9030;50.792;8.320;2023-08-31T11:44:07;17.60;99.90
17813;DHT22;9030;50.792;8.320;2023-08-31T11:46:35;17.30;99.90
17813;DHT22;9030;50.792;8.320;2023-08-31T11:49:02;17.40;99.90
17813;DHT22;9030;50.792;8.320;2023-08-31T11:51:30;17.80;99.90
17813;DHT22;9030;50.792;8.320;2023-08-31T11:53:59;18.00;99.90
17813;DHT22;9030;50.792;8.320;2023-08-31T11:56:27;18.60;99.90
17813;DHT22;9030;50.792;8.320;2023-08-31T11:58:55;18.40;99.90
17813;DHT22;9030;50.792;8.320;2023-08-31T12:01:22;17.90;99.90
17813;DHT22;9030;50.792;8.320;2023-08-31T12:03:49;17.80;99.90
17813;DHT22;9030;50.792;8.320;2023-08-31T12:06:16;18.20;99.90
17813;DHT22;9030;50.792;8.320;2023-08-31T12:08:44;18.20;99.90
17813;DHT22;9030;50.792;8.320;2023-08-31T12:11:12;18.50;99.90
17813;DHT22;9030;50.792;8.320;2023-08-31T12:13:40;18.50;99.90
17813;DHT22;9030;50.792;8.320;2023-08-31T12:16:11;18.60;99.90
17813;DHT22;9030;50.792;8.320;2023-08-31T12:18:39;18.70;99.90
17813;DHT22;9030;50.792;8.320;2023-08-31T12:21:06;18.40;99.90
17813;DHT22;9030;50.792;8.320;2023-08-31T12:23:33;18.40;99.90
17813;DHT22;9030;50.792;8.320;2023-08-31T12:25:59;18.20;99.90
17813;DHT22;9030;50.792;8.320;2023-08-31T12:28:28;17.90;99.90
17813;DHT22;9030;50.792;8.320;2023-08-31T12:30:55;17.50;99.90
17813;DHT22;9030;50.792;8.320;2023-08-31T12:33:23;17.40;99.90
17813;DHT22;9030;50.792;8.320;2023-08-31T12:35:50;17.30;99.90
17813;DHT22;9030;50.792;8.320;2023-08-31T12:38:17;17.30;99.90
17813;DHT22;9030;50.792;8.320;2023-08-31T12:40:44;17.20;99.90
17813;DHT22;9030;50.792;8.320;2023-08-31T12:43:11;16.80;99.90
17813;DHT22;9030;50.792;8.320;2023-08-31T12:45:39;16.70;99.90
17813;DHT22;9030;50.792;8.320;2023-08-31T12:48:06;16.70;99.90
17813;DHT22;9030;50.792;8.320;2023-08-31T12:50:33;16.60;99.90
17813;DHT22;9030;50.792;8.320;2023-08-31T12:53:00;16.70;99.90
17813;DHT22;9030;50.792;8.320;2023-08-31T12:55:27;16.40;99.90
17813;DHT22;9030;50.792;8.320;2023-08-31T12:57:56;16.10;99.90
17813;DHT22;9030;50.792;8.320;2023-08-31T13:00:23;16.20;99.90
17813;DHT22;9030;50.792;8.320;2023-08-31T13:02:51;16.40;99.90
17813;DHT22;9030;50.792;8.320;2023-08-31T13:05:18;16.50;99.90
17813;DHT22;9030;50.792;8.320;2023-08-31T13:07:45;16.60;99.90
17813;DHT22;9030;50.792;8.320;2023-08-31T13:10:12;16.70;99.90
17813;DHT22;9030;50.792;8.320;2023-08-31T13:12:38;17.30;99.90
17813;DHT22;9030;50.792;8.320;2023-08-31T13:15:07;17.80;99.90
17813;DHT22;9030;50.792;8.320;2023-08-31T13:17:34;18.20;99.90
17813;DHT22;9030;50.792;8.320;2023-08-31T13:20:02;18.60;99.90
17813;DHT22;9030;50.792;8.320;2023-08-31T13:22:30;18.70;99.90
17813;DHT22;9030;50.792;8.320;2023-08-31T13:24:56;18.80;99.90
17813;DHT22;9030;50.792;8.320;2023-08-31T13:27:23;18.60;99.90
17813;DHT22;9030;50.792;8.320;2023-08-31T13:29:51;18.40;99.90
17813;DHT22;9030;50.792;8.320;2023-08-31T13:32:17;18.40;99.90
17813;DHT22;9030;50.792;8.320;2023-08-31T13:34:44;18.80;99.90
17813;DHT22;9030;50.792;8.320;2023-08-31T13:37:12;19.00;99.90
17813;DHT22;9030;50.792;8.320;2023-08-31T13:39:39;19.10;99.90
17813;DHT22;9030;50.792;8.320;2023-08-31T13:42:06;19.00;99.90
17813;DHT22;9030;50.792;8.320;2023-08-31T13:44:33;18.90;99.90
17813;DHT22;9030;50.792;8.320;2023-08-31T13:47:00;18.70;99.90
17813;DHT22;9030;50.792;8.320;2023-08-31T13:49:28;18.60;99.90
17813;DHT22;9030;50.792;8.320;2023-08-31T13:51:55;18.60;99.90
17813;DHT22;9030;50.792;8.320;2023-08-31T13:54:23;18.70;99.90
17813;DHT22;9030;50.792;8.320;2023-08-31T13:56:50;18.50;99.90
17813;DHT22;9030;50.792;8.320;2023-08-31T13:59:17;18.30;99.90
17813;DHT22;9030;50.792;8.320;2023-08-31T14:01:44;17.90;99.90
17813;DHT22;9030;50.792;8.320;2023-08-31T14:04:10;17.50;99.90
17813;DHT22;9030;50.792;8.320;2023-08-31T14:06:37;17.40;99.90
17813;DHT22;9030;50.792;8.320;2023-08-31T14:09:04;17.20;99.90
17813;DHT22;9030;50.792;8.320;2023-08-31T14:11:34;16.80;99.90
17813;DHT22;9030;50.792;8.320;2023-08-31T14:14:02;16.70;99.90
17813;DHT22;9030;50.792;8.320;2023-08-31T14:16:30;16.30;99.90
17813;DHT22;9030;50.792;8.320;2023-08-31T14:18:57;16.10;99.90
17813;DHT22;9030;50.792;8.320;2023-08-31T14:21:24;16.00;99.90
17813;DHT22;9030;50.792;8.320;2023-08-31T14:23:50;15.70;99.90
17813;DHT22;9030;50.792;8.320;2023-08-31T14:26:21;15.60;99.90
17813;DHT22;9030;50.792;8.320;2023-08-31T14:28:49;15.50;99.90
17813;DHT22;9030;50.792;8.320;2023-08-31T14:31:15;15.30;99.90
17813;DHT22;9030;50.792;8.320;2023-08-31T14:33:42;15.30;99.90
17813;DHT22;9030;50.792;8.320;2023-08-31T14:36:09;15.30;99.90
17813;DHT22;9030;50.792;8.320;2023-08-31T14:41:02;15.40;99.90
17813;DHT22;9030;50.792;8.320;2023-08-31T14:43:31;15.60;99.90
17813;DHT22;9030;50.792;8.320;2023-08-31T14:46:00;15.80;99.90
17813;DHT22;9030;50.792;8.320;2023-08-31T14:48:27;15.80;99.90
17813;DHT22;9030;50.792;8.320;2023-08-31T14:50:53;15.80;99.90
17813;DHT22;9030;50.792;8.320;2023-08-31T14:53:19;15.90;99.90
17813;DHT22;9030;50.792;8.320;2023-08-31T14:55:48;16.10;99.90
17813;DHT22;9030;50.792;8.320;2023-08-31T14:58:15;16.20;99.90
17813;DHT22;9030;50.792;8.320;2023-08-31T15:00:42;16.50;99.90
17813;DHT22;9030;50.792;8.320;2023-08-31T15:03:10;17.00;99.90
17813;DHT22;9030;50.792;8.320;2023-08-31T15:05:37;17.10;99.90
17813;DHT22;9030;50.792;8.320;2023-08-31T15:08:06;17.20;99.90
17813;DHT22;9030;50.792;8.320;2023-08-31T15:10:33;17.00;99.90
17813;DHT22;9030;50.792;8.320;2023-08-31T15:13:00;17.20;99.90
17813;DHT22;9030;50.792;8.320;2023-08-31T15:15:27;17.40;99.90
17813;DHT22;9030;50.792;8.320;2023-08-31T15:17:53;17.30;99.90
17813;DHT22;9030;50.792;8.320;2023-08-31T15:20:22;17.20;99.90
17813;DHT22;9030;50.792;8.320;2023-08-31T15:22:50;17.40;99.90
17813;DHT22;9030;50.792;8.320;2023-08-31T15:25:16;18.20;99.90
17813;DHT22;9030;50.792;8.320;2023-08-31T15:27:43;18.60;99.90
17813;DHT22;9030;50.792;8.320;2023-08-31T15:30:11;18.70;99.90
17813;DHT22;9030;50.792;8.320;2023-08-31T15:32:38;18.60;99.90
17813;DHT22;9030;50.792;8.320;2023-08-31T15:35:05;18.80;99.90
17813;DHT22;9030;50.792;8.320;2023-08-31T15:37:33;18.80;99.90
17813;DHT22;9030;50.792;8.320;2023-08-31T15:40:00;18.60;99.90
17813;DHT22;9030;50.792;8.320;2023-08-31T15:42:26;18.50;99.90
17813;DHT22;9030;50.792;8.320;2023-08-31T15:44:54;18.20;99.90
17813;DHT22;9030;50.792;8.320;2023-08-31T15:47:21;17.90;99.90
17813;DHT22;9030;50.792;8.320;2023-08-31T15:49:50;17.70;99.90
17813;DHT22;9030;50.792;8.320;2023-08-31T15:52:17;17.60;99.90
17813;DHT22;9030;50.792;8.320;2023-08-31T15:54:44;17.40;99.90
17813;DHT22;9030;50.792;8.320;2023-08-31T15:57:11;17.30;99.90
17813;DHT22;9030;50.792;8.320;2023-08-31T15:59:38;17.30;99.90
17813;DHT22;9030;50.792;8.320;2023-08-31T16:02:05;17.30;99.90